createdAt,value
2023-05-11T00:01:47.534Z,14.40
2023-05-11T00:04:14.291Z,14.40
2023-05-11T00:06:41.036Z,14.40
2023-05-11T00:09:09.335Z,14.40
2023-05-11T00:11:36.185Z,14.40
2023-05-11T00:14:03.239Z,14.30
2023-05-11T00:16:30.020Z,14.30
2023-05-11T00:18:56.788Z,14.30
2023-05-11T00:21:23.584Z,14.30
2023-05-11T00:23:50.978Z,14.30
2023-05-11T00:26:17.728Z,14.30
2023-05-11T00:28:45.524Z,14.30
2023-05-11T00:31:12.337Z,14.40
2023-05-11T00:33:39.136Z,14.40
2023-05-11T00:36:06.314Z,14.40
2023-05-11T00:38:33.124Z,14.40
2023-05-11T00:40:59.880Z,14.40
2023-05-11T00:43:26.599Z,14.40
2023-05-11T00:45:53.608Z,14.50
2023-05-11T00:48:20.399Z,14.40
2023-05-11T00:50:47.810Z,14.40
2023-05-11T00:53:14.821Z,14.40
2023-05-11T00:55:42.266Z,14.40
2023-05-11T00:58:08.960Z,14.40
2023-05-11T01:00:36.682Z,14.40
2023-05-11T01:03:03.794Z,14.40
2023-05-11T01:05:41.603Z,14.40
2023-05-11T01:08:40.304Z,14.40
2023-05-11T01:11:21.504Z,14.40
2023-05-11T01:14:03.836Z,14.40
2023-05-11T01:16:35.066Z,14.40
2023-05-11T01:19:19.249Z,14.40
2023-05-11T01:21:50.638Z,14.40
2023-05-11T01:24:32.245Z,14.40
2023-05-11T01:27:02.131Z,14.40
2023-05-11T01:29:50.530Z,14.40
2023-05-11T01:32:20.684Z,14.40
2023-05-11T01:34:51.158Z,14.40
2023-05-11T01:37:22.983Z,14.40
2023-05-11T01:39:54.044Z,14.40
2023-05-11T01:42:50.713Z,14.40
2023-05-11T01:45:18.993Z,14.40
2023-05-11T01:47:50.245Z,14.40
2023-05-11T01:50:24.429Z,14.40
2023-05-11T01:52:52.267Z,14.40
2023-05-11T01:55:22.252Z,14.40
2023-05-11T01:57:53.187Z,14.40
2023-05-11T02:00:20.785Z,14.40
2023-05-11T02:02:49.049Z,14.30
2023-05-11T02:05:20.724Z,14.40
2023-05-11T02:07:50.018Z,14.30
2023-05-11T02:10:18.520Z,14.30
2023-05-11T02:12:46.794Z,14.30
2023-05-11T02:15:14.053Z,14.30
2023-05-11T02:17:42.171Z,14.40
2023-05-11T02:20:11.198Z,14.40
2023-05-11T02:22:38.502Z,14.40
2023-05-11T02:25:06.901Z,14.40
2023-05-11T02:27:35.915Z,14.40
2023-05-11T02:30:04.604Z,14.40
2023-05-11T02:32:35.064Z,14.40
2023-05-11T02:35:07.696Z,14.40
2023-05-11T02:37:40.510Z,14.40
2023-05-11T02:40:16.380Z,14.40
2023-05-11T02:42:47.084Z,14.40
2023-05-11T02:45:17.067Z,14.40
2023-05-11T02:47:48.013Z,14.40
2023-05-11T02:50:16.974Z,14.40
2023-05-11T02:52:46.754Z,14.40
2023-05-11T02:55:16.990Z,14.40
2023-05-11T02:57:45.346Z,14.30
2023-05-11T03:00:13.375Z,14.30
2023-05-11T03:02:40.154Z,14.30
2023-05-11T03:05:07.092Z,14.30
2023-05-11T03:07:34.163Z,14.30
2023-05-11T03:10:02.312Z,14.30
2023-05-11T03:12:32.760Z,14.30
2023-05-11T03:15:00.973Z,14.30
2023-05-11T03:17:29.560Z,14.30
2023-05-11T03:19:58.153Z,14.30
2023-05-11T03:22:26.471Z,14.30
2023-05-11T03:24:53.695Z,14.30
2023-05-11T03:27:21.074Z,14.30
2023-05-11T03:29:50.061Z,14.30
2023-05-11T03:32:17.031Z,14.30
2023-05-11T03:34:44.060Z,14.30
2023-05-11T03:37:13.323Z,14.30
2023-05-11T03:39:43.785Z,14.30
2023-05-11T03:42:13.952Z,14.30
2023-05-11T03:44:43.927Z,14.30
2023-05-11T03:47:11.347Z,14.30
2023-05-11T03:49:38.841Z,14.30
2023-05-11T03:52:06.523Z,14.30
2023-05-11T03:54:33.325Z,14.30
2023-05-11T03:57:00.205Z,14.30
2023-05-11T03:59:26.946Z,14.30
2023-05-11T04:01:54.072Z,14.30
2023-05-11T04:04:27.798Z,14.30
2023-05-11T04:06:54.586Z,14.20
2023-05-11T04:09:21.322Z,14.30
2023-05-11T04:11:48.015Z,14.30
2023-05-11T04:14:14.845Z,14.30
2023-05-11T04:16:41.661Z,14.30
2023-05-11T04:19:08.467Z,14.30
2023-05-11T04:21:35.882Z,14.30
2023-05-11T04:24:02.859Z,14.20
2023-05-11T04:26:29.660Z,14.30
2023-05-11T04:28:56.433Z,14.30
2023-05-11T04:31:23.259Z,14.30
2023-05-11T04:33:50.072Z,14.30
2023-05-11T04:36:16.807Z,14.30
2023-05-11T04:38:43.552Z,14.40
2023-05-11T04:41:10.242Z,14.30
2023-05-11T04:43:36.991Z,14.40
2023-05-11T04:46:03.767Z,14.40
2023-05-11T04:48:30.509Z,14.40
2023-05-11T04:50:57.488Z,14.40
2023-05-11T04:53:24.374Z,14.50
2023-05-11T04:55:51.323Z,14.40
2023-05-11T04:58:18.043Z,14.40
2023-05-11T05:00:44.787Z,14.50
2023-05-11T05:03:11.731Z,14.50
2023-05-11T05:05:38.505Z,14.60
2023-05-11T05:08:05.571Z,14.60
2023-05-11T05:10:32.334Z,14.60
2023-05-11T05:12:59.091Z,14.60
2023-05-11T05:15:25.911Z,14.60
2023-05-11T05:17:52.841Z,14.60
2023-05-11T05:20:20.019Z,14.70
2023-05-11T05:22:46.965Z,14.70
2023-05-11T05:25:13.702Z,14.70
2023-05-11T05:27:40.506Z,14.80
2023-05-11T05:30:07.825Z,14.70
2023-05-11T05:32:34.547Z,14.80
2023-05-11T05:35:01.300Z,14.80
2023-05-11T05:37:27.981Z,14.80
2023-05-11T05:39:54.746Z,14.80
2023-05-11T05:42:22.424Z,14.80
2023-05-11T05:44:49.517Z,14.80
2023-05-11T05:47:16.630Z,14.80
2023-05-11T05:49:43.449Z,14.80
2023-05-11T05:52:10.498Z,14.80
2023-05-11T05:54:37.234Z,14.80
2023-05-11T05:57:04.094Z,14.80
2023-05-11T05:59:30.771Z,14.90
2023-05-11T06:01:57.483Z,14.90
2023-05-11T06:04:24.494Z,14.90
2023-05-11T06:06:51.385Z,14.90
2023-05-11T06:09:18.169Z,14.90
2023-05-11T06:11:44.905Z,14.90
2023-05-11T06:14:11.589Z,15.00
2023-05-11T06:16:38.464Z,15.00
2023-05-11T06:19:05.392Z,15.00
2023-05-11T06:21:32.422Z,15.00
2023-05-11T06:23:59.150Z,15.10
2023-05-11T06:26:25.924Z,15.10
2023-05-11T06:28:52.786Z,15.10
2023-05-11T06:31:19.987Z,15.20
2023-05-11T06:33:46.818Z,15.10
2023-05-11T06:36:13.521Z,15.20
2023-05-11T06:38:40.316Z,15.20
2023-05-11T06:41:07.664Z,15.20
2023-05-11T06:43:34.375Z,15.20
2023-05-11T06:46:01.860Z,15.30
2023-05-11T06:48:29.934Z,15.30
2023-05-11T06:50:57.391Z,15.30
2023-05-11T06:53:24.146Z,15.40
2023-05-11T06:55:50.953Z,15.40
2023-05-11T06:58:20.465Z,15.40
2023-05-11T07:00:47.435Z,15.50
2023-05-11T07:03:14.230Z,15.60
2023-05-11T07:05:41.190Z,15.60
2023-05-11T07:08:08.041Z,15.60
2023-05-11T07:10:34.964Z,15.60
2023-05-11T07:13:01.694Z,15.70
2023-05-11T07:15:28.468Z,15.70
2023-05-11T07:17:55.338Z,15.70
2023-05-11T07:20:22.162Z,15.70
2023-05-11T07:22:49.017Z,15.70
2023-05-11T07:25:15.810Z,15.90
2023-05-11T07:27:42.755Z,15.90
2023-05-11T07:30:09.949Z,15.90
2023-05-11T07:32:36.923Z,16.00
2023-05-11T07:35:03.923Z,16.00
2023-05-11T07:37:30.682Z,16.00
2023-05-11T07:39:57.541Z,16.10
2023-05-11T07:42:24.300Z,16.10
2023-05-11T07:44:51.006Z,16.10
2023-05-11T07:47:20.703Z,16.20
2023-05-11T07:49:48.640Z,16.20
2023-05-11T07:52:15.387Z,16.20
2023-05-11T07:54:42.214Z,16.20
2023-05-11T07:57:11.396Z,16.30
2023-05-11T07:59:38.433Z,16.40
2023-05-11T08:02:08.522Z,16.50
2023-05-11T08:04:36.480Z,16.60
2023-05-11T08:07:04.332Z,16.70
2023-05-11T08:09:32.214Z,16.90
2023-05-11T08:12:01.591Z,17.00
2023-05-11T08:14:28.559Z,17.00
2023-05-11T08:16:55.408Z,17.10
2023-05-11T08:19:22.207Z,17.10
2023-05-11T08:21:48.946Z,17.20
2023-05-11T08:24:15.740Z,17.40
2023-05-11T08:26:42.913Z,17.50
2023-05-11T08:29:11.224Z,17.70
2023-05-11T08:31:38.390Z,17.80
2023-05-11T08:34:15.780Z,17.90
2023-05-11T08:36:46.864Z,17.90
2023-05-11T08:39:13.734Z,17.90
2023-05-11T08:41:40.500Z,17.90
2023-05-11T08:44:08.089Z,17.90
2023-05-11T08:46:36.703Z,17.90
2023-05-11T08:49:03.497Z,17.70
2023-05-11T08:51:30.312Z,17.70
2023-05-11T08:53:58.758Z,17.70
2023-05-11T08:56:27.667Z,17.60
2023-05-11T08:58:57.996Z,17.60
2023-05-11T09:01:29.216Z,17.50
2023-05-11T09:03:58.208Z,17.40
2023-05-11T09:06:26.867Z,17.40
2023-05-11T09:08:54.272Z,17.30
2023-05-11T09:11:22.887Z,17.30
2023-05-11T09:13:50.055Z,17.30
2023-05-11T09:16:35.507Z,17.30
2023-05-11T09:19:03.901Z,17.40
2023-05-11T09:21:31.902Z,17.50
2023-05-11T09:23:59.269Z,17.50
2023-05-11T09:26:28.483Z,17.70
2023-05-11T09:31:42.857Z,17.90
2023-05-11T09:34:15.798Z,18.10
2023-05-11T09:36:50.616Z,18.10
2023-05-11T09:39:35.130Z,18.20
2023-05-11T09:42:17.495Z,18.10
2023-05-11T09:44:47.162Z,18.10
2023-05-11T09:47:17.941Z,18.00
2023-05-11T09:49:46.583Z,18.00
2023-05-11T09:52:15.242Z,17.90
2023-05-11T09:54:43.929Z,17.80
2023-05-11T09:57:28.499Z,17.80
2023-05-11T09:59:56.710Z,17.70
2023-05-11T10:02:26.298Z,17.60
2023-05-11T10:04:54.790Z,17.40
2023-05-11T10:07:24.529Z,17.30
2023-05-11T10:09:54.047Z,17.20
2023-05-11T10:12:23.361Z,17.10
2023-05-11T10:14:52.658Z,17.10
2023-05-11T10:17:20.457Z,17.00
2023-05-11T10:19:48.981Z,17.00
2023-05-11T10:22:17.752Z,17.00
2023-05-11T10:24:44.702Z,16.90
2023-05-11T10:27:12.795Z,16.90
2023-05-11T10:29:39.891Z,16.90
2023-05-11T10:32:08.203Z,16.90
2023-05-11T10:34:35.380Z,16.80
2023-05-11T10:37:02.735Z,16.70
2023-05-11T10:39:30.556Z,16.70
2023-05-11T10:42:24.705Z,16.70
2023-05-11T10:45:12.523Z,16.70
2023-05-11T10:47:42.275Z,16.80
2023-05-11T10:50:14.874Z,16.90
2023-05-11T10:53:18.893Z,16.90
2023-05-11T10:56:16.004Z,16.90
2023-05-11T10:59:17.181Z,16.90
2023-05-11T11:01:45.514Z,16.90
2023-05-11T11:04:13.617Z,16.80
2023-05-11T11:06:42.549Z,16.80
2023-05-11T11:09:16.551Z,16.70
2023-05-11T11:11:47.969Z,16.70
2023-05-11T11:14:16.426Z,16.60
2023-05-11T11:17:22.236Z,16.50
2023-05-11T11:19:49.058Z,16.50
2023-05-11T11:22:34.566Z,16.40
2023-05-11T11:25:02.325Z,16.40
2023-05-11T11:27:41.305Z,16.30
2023-05-11T11:30:18.658Z,16.30
2023-05-11T11:32:48.432Z,16.30
2023-05-11T11:35:40.456Z,16.20
2023-05-11T11:38:08.851Z,16.20
2023-05-11T11:43:18.945Z,16.20
2023-05-11T11:46:02.061Z,16.20
2023-05-11T11:48:33.501Z,16.20
2023-05-11T11:51:07.432Z,16.10
2023-05-11T11:53:37.475Z,16.10
2023-05-11T11:56:05.859Z,16.10
2023-05-11T11:58:41.596Z,16.10
2023-05-11T12:01:25.859Z,16.10
2023-05-11T12:04:04.608Z,16.20
2023-05-11T12:06:39.497Z,16.20
2023-05-11T12:09:07.401Z,16.20
2023-05-11T12:11:34.797Z,16.20
2023-05-11T12:14:02.731Z,16.20
2023-05-11T12:16:29.996Z,16.20
2023-05-11T12:19:01.386Z,16.20
2023-05-11T12:21:31.801Z,16.20
2023-05-11T12:24:03.576Z,16.20
2023-05-11T12:26:31.717Z,16.30
2023-05-11T12:29:13.260Z,16.40
2023-05-11T12:31:41.682Z,16.50
2023-05-11T12:34:15.716Z,16.50
2023-05-11T12:36:44.054Z,16.60
2023-05-11T12:39:24.205Z,16.60
2023-05-11T12:41:53.033Z,16.60
2023-05-11T12:44:21.551Z,16.60
2023-05-11T12:46:49.737Z,16.70
2023-05-11T12:51:52.635Z,16.70
2023-05-11T12:54:31.316Z,16.70
2023-05-11T12:56:58.632Z,16.70
2023-05-11T12:59:25.328Z,16.70
2023-05-11T13:01:52.195Z,16.80
2023-05-11T13:04:27.842Z,16.80
2023-05-11T13:06:54.646Z,16.90
2023-05-11T13:09:25.703Z,17.00
2023-05-11T13:12:07.146Z,17.10
2023-05-11T13:14:34.044Z,17.20
2023-05-11T13:17:00.780Z,17.30
2023-05-11T13:19:29.666Z,17.40
2023-05-11T13:21:57.344Z,17.60
2023-05-11T13:24:25.448Z,17.70
2023-05-11T13:26:53.399Z,17.70
2023-05-11T13:29:20.679Z,17.90
2023-05-11T13:31:52.194Z,18.20
2023-05-11T13:34:19.448Z,18.30
2023-05-11T13:36:46.670Z,18.40
2023-05-11T13:39:13.545Z,18.50
2023-05-11T13:41:40.307Z,18.50
2023-05-11T13:44:07.136Z,18.60
2023-05-11T13:46:33.961Z,18.70
2023-05-11T13:49:00.985Z,18.80
2023-05-11T13:51:27.849Z,18.90
2023-05-11T13:53:54.825Z,18.80
2023-05-11T13:56:22.160Z,18.70
2023-05-11T13:58:49.105Z,18.50
2023-05-11T14:01:16.377Z,18.50
2023-05-11T14:03:43.230Z,18.40
2023-05-11T14:06:10.082Z,18.40
2023-05-11T14:08:36.842Z,18.40
2023-05-11T14:11:03.674Z,18.30
2023-05-11T14:13:30.438Z,18.10
2023-05-11T14:15:57.462Z,18.00
2023-05-11T14:18:25.905Z,17.90
2023-05-11T14:20:53.878Z,17.80
2023-05-11T14:23:20.693Z,17.80
2023-05-11T14:25:47.458Z,17.80
2023-05-11T14:28:14.166Z,17.80
2023-05-11T14:30:41.019Z,17.90
2023-05-11T14:33:07.794Z,17.90
2023-05-11T14:35:34.577Z,17.90
2023-05-11T14:38:02.831Z,17.90
2023-05-11T14:40:29.713Z,17.90
2023-05-11T14:42:56.511Z,17.90
2023-05-11T14:45:23.273Z,17.90
2023-05-11T14:47:50.454Z,17.90
2023-05-11T14:50:17.317Z,17.90
2023-05-11T14:52:44.026Z,17.90
2023-05-11T14:55:10.857Z,17.90
2023-05-11T14:57:37.733Z,17.90
2023-05-11T15:00:04.991Z,17.90
2023-05-11T15:02:31.837Z,17.80
2023-05-11T15:04:58.702Z,17.80
2023-05-11T15:07:25.677Z,17.80
2023-05-11T15:09:52.717Z,17.80
2023-05-11T15:12:19.426Z,17.70
2023-05-11T15:14:46.239Z,17.70
2023-05-11T15:17:12.977Z,17.70
2023-05-11T15:19:39.706Z,17.70
2023-05-11T15:22:06.496Z,17.80
2023-05-11T15:24:33.889Z,17.80
2023-05-11T15:27:00.625Z,17.80
2023-05-11T15:29:27.395Z,17.80
2023-05-11T15:31:54.206Z,17.90
2023-05-11T15:34:21.018Z,17.80
2023-05-11T15:36:49.715Z,17.80
2023-05-11T15:39:17.364Z,17.70
2023-05-11T15:41:44.182Z,17.70
2023-05-11T15:44:10.952Z,17.70
2023-05-11T15:46:38.890Z,17.60
2023-05-11T15:49:06.232Z,17.60
2023-05-11T15:51:33.033Z,17.50
2023-05-11T15:53:59.757Z,17.50
2023-05-11T15:56:27.017Z,17.50
2023-05-11T15:58:53.779Z,17.40
2023-05-11T16:01:21.057Z,17.40
2023-05-11T16:03:47.938Z,17.40
2023-05-11T16:06:14.768Z,17.30
2023-05-11T16:08:41.733Z,17.40
2023-05-11T16:11:08.533Z,17.40
2023-05-11T16:13:35.272Z,17.40
2023-05-11T16:16:02.094Z,17.30
2023-05-11T16:18:28.972Z,17.30
2023-05-11T16:20:56.380Z,17.20
2023-05-11T16:23:25.207Z,17.20
2023-05-11T16:25:52.063Z,17.10
2023-05-11T16:28:18.763Z,17.10
2023-05-11T16:30:45.541Z,17.10
2023-05-11T16:33:12.372Z,17.10
2023-05-11T16:35:39.390Z,17.10
2023-05-11T16:38:06.283Z,17.10
2023-05-11T16:40:33.071Z,17.10
2023-05-11T16:42:59.866Z,17.10
2023-05-11T16:45:26.597Z,17.00
2023-05-11T16:47:53.580Z,17.00
2023-05-11T16:50:20.670Z,17.00
2023-05-11T16:52:48.623Z,16.90
2023-05-11T16:55:16.182Z,16.90
2023-05-11T16:57:44.457Z,16.90
2023-05-11T17:00:12.925Z,17.00
2023-05-11T17:02:40.443Z,17.00
2023-05-11T17:05:08.103Z,17.00
2023-05-11T17:07:35.088Z,17.00
2023-05-11T17:10:01.873Z,17.00
2023-05-11T17:12:32.024Z,16.90
2023-05-11T17:14:58.819Z,16.90
2023-05-11T17:17:25.632Z,16.80
2023-05-11T17:19:52.681Z,16.80
2023-05-11T17:22:19.441Z,16.80
2023-05-11T17:24:46.832Z,16.80
2023-05-11T17:27:13.656Z,16.70
2023-05-11T17:29:43.396Z,16.70
2023-05-11T17:32:10.293Z,16.60
2023-05-11T17:34:37.130Z,16.70
2023-05-11T17:37:04.133Z,16.60
2023-05-11T17:39:30.956Z,16.60
2023-05-11T17:41:57.981Z,16.60
2023-05-11T17:44:24.741Z,16.60
2023-05-11T17:46:52.034Z,16.50
2023-05-11T17:49:18.996Z,16.50
2023-05-11T17:51:47.158Z,16.50
2023-05-11T17:54:14.268Z,16.50
2023-05-11T17:56:41.310Z,16.40
2023-05-11T17:59:08.053Z,16.30
2023-05-11T18:01:34.864Z,16.30
2023-05-11T18:04:02.602Z,16.30
2023-05-11T18:06:29.865Z,16.20
2023-05-11T18:08:58.061Z,16.20
2023-05-11T18:11:25.889Z,16.20
2023-05-11T18:13:52.860Z,16.10
2023-05-11T18:16:19.705Z,16.10
2023-05-11T18:18:46.562Z,16.10
2023-05-11T18:21:13.393Z,16.10
2023-05-11T18:23:40.072Z,16.10
2023-05-11T18:26:07.125Z,16.10
2023-05-11T18:28:33.898Z,16.10
2023-05-11T18:31:00.778Z,16.10
2023-05-11T18:33:27.625Z,16.10
2023-05-11T18:35:54.350Z,16.00
2023-05-11T18:38:21.027Z,16.00
2023-05-11T18:40:47.823Z,16.00
2023-05-11T18:43:14.668Z,16.00
2023-05-11T18:45:41.576Z,16.00
2023-05-11T18:48:08.444Z,15.90
2023-05-11T18:50:35.767Z,15.90
2023-05-11T18:53:03.247Z,15.80
2023-05-11T18:55:35.491Z,15.80
2023-05-11T18:58:07.992Z,15.70
2023-05-11T19:00:37.440Z,15.70
2023-05-11T19:03:04.505Z,15.70
2023-05-11T19:05:31.414Z,15.70
2023-05-11T19:07:58.118Z,15.60
2023-05-11T19:10:24.923Z,15.60
2023-05-11T19:12:51.757Z,15.60
2023-05-11T19:15:18.607Z,15.60
2023-05-11T19:17:45.571Z,15.50
2023-05-11T19:20:12.780Z,15.50
2023-05-11T19:22:39.720Z,15.50
2023-05-11T19:25:07.702Z,15.50
2023-05-11T19:27:34.466Z,15.50
2023-05-11T19:30:01.226Z,15.50
2023-05-11T19:32:28.072Z,15.50
2023-05-11T19:34:55.020Z,15.40
2023-05-11T19:37:22.111Z,15.40
2023-05-11T19:39:49.262Z,15.40
2023-05-11T19:42:17.996Z,15.40
2023-05-11T19:44:46.883Z,15.40
2023-05-11T19:47:13.604Z,15.40
2023-05-11T19:49:40.346Z,15.40
2023-05-11T19:52:07.201Z,15.40
2023-05-11T19:54:34.213Z,15.30
2023-05-11T19:57:01.294Z,15.30
2023-05-11T19:59:32.829Z,15.30
2023-05-11T20:02:00.406Z,15.30
2023-05-11T20:04:28.489Z,15.30
2023-05-11T20:06:55.930Z,15.30
2023-05-11T20:09:23.200Z,15.30
2023-05-11T20:11:49.965Z,15.30
2023-05-11T20:14:17.007Z,15.30
2023-05-11T20:16:43.931Z,15.30
2023-05-11T20:19:10.931Z,15.30
2023-05-11T20:21:37.765Z,15.30
2023-05-11T20:24:04.641Z,15.30
2023-05-11T20:26:31.819Z,15.20
2023-05-11T20:28:58.636Z,15.30
2023-05-11T20:31:27.192Z,15.30
2023-05-11T20:36:23.769Z,15.30
2023-05-11T20:38:53.660Z,15.30
2023-05-11T20:41:22.113Z,15.30
2023-05-11T20:43:48.901Z,15.30
2023-05-11T20:46:15.755Z,15.30
2023-05-11T20:48:45.145Z,15.30
2023-05-11T20:51:14.878Z,15.30
2023-05-11T20:53:41.620Z,15.30
2023-05-11T20:56:10.071Z,15.30
2023-05-11T20:58:36.885Z,15.20
2023-05-11T21:01:03.681Z,15.30
2023-05-11T21:03:30.575Z,15.30
2023-05-11T21:05:57.352Z,15.30
2023-05-11T21:08:24.099Z,15.30
2023-05-11T21:10:50.956Z,15.30
2023-05-11T21:13:17.728Z,15.20
2023-05-11T21:15:44.418Z,15.30
2023-05-11T21:18:11.311Z,15.30
2023-05-11T21:20:38.123Z,15.20
2023-05-11T21:23:04.935Z,15.30
2023-05-11T21:25:31.804Z,15.20
2023-05-11T21:28:00.667Z,15.20
2023-05-11T21:30:28.074Z,15.20
2023-05-11T21:32:54.954Z,15.20
2023-05-11T21:35:21.669Z,15.20
2023-05-11T21:37:50.016Z,15.20
2023-05-11T21:40:17.924Z,15.20
2023-05-11T21:42:45.257Z,15.20
2023-05-11T21:45:12.345Z,15.20
2023-05-11T21:47:39.456Z,15.20
2023-05-11T21:50:08.336Z,15.20
2023-05-11T21:52:35.178Z,15.20
2023-05-11T21:55:01.976Z,15.20
2023-05-11T21:57:29.214Z,15.10
2023-05-11T21:59:56.004Z,15.10
2023-05-11T22:02:23.597Z,15.10
2023-05-11T22:04:50.484Z,15.10
2023-05-11T22:07:17.601Z,15.10
2023-05-11T22:09:44.475Z,15.10
2023-05-11T22:12:11.811Z,15.10
2023-05-11T22:14:38.570Z,15.10
2023-05-11T22:17:05.555Z,15.10
2023-05-11T22:19:32.896Z,15.10
2023-05-11T22:21:59.729Z,15.10
2023-05-11T22:24:27.240Z,15.10
2023-05-11T22:26:54.336Z,15.10
2023-05-11T22:29:22.228Z,15.00
2023-05-11T22:31:49.249Z,15.00
2023-05-11T22:34:16.231Z,15.00
2023-05-11T22:36:43.111Z,15.00
2023-05-11T22:39:11.427Z,14.90
2023-05-11T22:41:38.422Z,14.90
2023-05-11T22:44:05.638Z,14.90
2023-05-11T22:46:32.423Z,14.80
2023-05-11T22:48:59.208Z,14.80
2023-05-11T22:51:25.928Z,14.80
2023-05-11T22:53:52.779Z,14.80
2023-05-11T22:56:19.874Z,14.80
2023-05-11T22:58:46.609Z,14.80
2023-05-11T23:01:14.187Z,14.70
2023-05-11T23:03:41.090Z,14.70
2023-05-11T23:06:07.976Z,14.70
2023-05-11T23:08:34.865Z,14.70
2023-05-11T23:11:01.599Z,14.70
2023-05-11T23:13:28.356Z,14.70
2023-05-11T23:15:55.103Z,14.60
2023-05-11T23:18:22.383Z,14.60
2023-05-11T23:20:54.733Z,14.60
2023-05-11T23:23:21.425Z,14.60
2023-05-11T23:25:48.234Z,14.60
2023-05-11T23:28:15.110Z,14.50
2023-05-11T23:30:42.126Z,14.50
2023-05-11T23:33:09.033Z,14.50
2023-05-11T23:35:35.866Z,14.40
2023-05-11T23:38:02.623Z,14.40
2023-05-11T23:40:29.361Z,14.40
2023-05-11T23:42:56.257Z,14.30
2023-05-11T23:45:25.089Z,14.30
2023-05-11T23:47:52.340Z,14.30
2023-05-11T23:50:19.867Z,14.30
2023-05-11T23:52:46.848Z,14.30
2023-05-11T23:55:13.565Z,14.30
2023-05-11T23:57:41.142Z,14.20
